createdAt,value
2022-10-05T00:01:27.001Z,100440.84
2022-10-05T00:04:00.385Z,100449.38
2022-10-05T00:06:32.550Z,100444.06
2022-10-05T00:09:02.169Z,100437.91
2022-10-05T00:11:31.059Z,100437.78
2022-10-05T00:14:00.655Z,100445.88
2022-10-05T00:16:33.262Z,100443.69
2022-10-05T00:19:01.368Z,100443.53
2022-10-05T00:21:30.408Z,100434.44
2022-10-05T00:24:02.364Z,100436.63
2022-10-05T00:26:34.233Z,100431.50
2022-10-05T00:29:09.879Z,100432.75
2022-10-05T00:31:39.346Z,100425.97
2022-10-05T00:34:10.170Z,100423.16
2022-10-05T00:36:39.330Z,100430.81
2022-10-05T00:39:11.477Z,100427.25
2022-10-05T00:41:56.940Z,100428.38
2022-10-05T00:44:38.170Z,100424.25
2022-10-05T00:47:16.178Z,100427.03
2022-10-05T00:50:03.975Z,100425.41
2022-10-05T00:52:38.192Z,100433.44
2022-10-05T00:55:12.365Z,100432.16
2022-10-05T00:57:50.160Z,100429.34
2022-10-05T01:00:21.725Z,100415.47
2022-10-05T01:02:59.784Z,100417.16
2022-10-05T01:05:42.833Z,100418.03
2022-10-05T01:08:17.522Z,100415.47
2022-10-05T01:10:48.353Z,100426.88
2022-10-05T01:13:24.384Z,100427.97
2022-10-05T01:15:58.415Z,100434.19
2022-10-05T01:18:39.223Z,100420.16
2022-10-05T01:21:14.882Z,100425.22
2022-10-05T01:24:34.613Z,100418.41
2022-10-05T01:27:32.349Z,100417.69
2022-10-05T01:30:05.871Z,100423.03
2022-10-05T01:32:38.047Z,100416.00
2022-10-05T01:35:15.422Z,100404.63
2022-10-05T01:37:54.797Z,100404.91
2022-10-05T01:40:32.366Z,100410.88
2022-10-05T01:43:08.573Z,100395.38
2022-10-05T01:45:45.207Z,100390.25
2022-10-05T01:48:22.125Z,100390.59
2022-10-05T01:50:57.612Z,100389.88
2022-10-05T01:53:34.084Z,100389.38
2022-10-05T01:56:09.171Z,100383.06
2022-10-05T01:58:46.000Z,100374.94
2022-10-05T02:01:19.543Z,100382.00
2022-10-05T02:03:51.356Z,100371.75
2022-10-05T02:06:25.662Z,100381.00
2022-10-05T02:09:00.399Z,100371.53
2022-10-05T02:11:30.576Z,100361.69
2022-10-05T02:14:04.074Z,100363.75
2022-10-05T02:16:37.575Z,100361.94
2022-10-05T02:19:14.732Z,100364.88
2022-10-05T02:21:47.538Z,100373.13
2022-10-05T02:24:22.635Z,100372.44
2022-10-05T02:26:52.968Z,100371.56
2022-10-05T02:29:27.758Z,100366.16
2022-10-05T02:32:03.394Z,100363.50
2022-10-05T02:34:38.139Z,100371.56
2022-10-05T02:37:25.552Z,100366.16
2022-10-05T02:40:09.171Z,100367.09
2022-10-05T02:42:48.589Z,100363.75
2022-10-05T02:45:28.338Z,100361.31
2022-10-05T02:48:05.357Z,100360.16
2022-10-05T02:50:38.751Z,100352.41
2022-10-05T02:53:17.386Z,100349.72
2022-10-05T02:55:52.450Z,100347.09
2022-10-05T02:58:25.542Z,100349.16
2022-10-05T03:01:01.562Z,100341.03
2022-10-05T03:03:36.446Z,100335.50
2022-10-05T03:06:07.468Z,100341.88
2022-10-05T03:08:38.742Z,100343.00
2022-10-05T03:11:15.756Z,100338.63
2022-10-05T03:13:48.695Z,100341.66
2022-10-05T03:16:37.406Z,100339.03
2022-10-05T03:19:15.158Z,100334.38
2022-10-05T03:21:54.430Z,100336.97
2022-10-05T03:24:39.503Z,100337.78
2022-10-05T03:27:16.368Z,100335.75
2022-10-05T03:29:48.792Z,100326.78
2022-10-05T03:32:22.744Z,100325.94
2022-10-05T03:34:56.890Z,100327.84
2022-10-05T03:37:29.400Z,100325.50
2022-10-05T03:40:01.575Z,100330.69
2022-10-05T03:42:36.303Z,100326.06
2022-10-05T03:45:10.743Z,100314.75
2022-10-05T03:47:52.421Z,100315.75
2022-10-05T03:50:30.715Z,100319.53
2022-10-05T03:53:02.553Z,100323.38
2022-10-05T03:55:39.484Z,100322.06
2022-10-05T03:58:15.001Z,100312.50
2022-10-05T04:00:46.796Z,100316.59
2022-10-05T04:03:22.729Z,100312.00
2022-10-05T04:05:55.416Z,100304.25
2022-10-05T04:08:29.696Z,100302.19
2022-10-05T04:10:59.281Z,100306.31
2022-10-05T04:13:33.058Z,100306.94
2022-10-05T04:16:06.867Z,100316.28
2022-10-05T04:18:40.833Z,100310.91
2022-10-05T04:21:12.579Z,100315.63
2022-10-05T04:23:46.614Z,100322.19
2022-10-05T04:26:19.092Z,100321.72
2022-10-05T04:28:57.606Z,100319.53
2022-10-05T04:31:46.022Z,100323.50
2022-10-05T04:34:30.625Z,100319.06
2022-10-05T04:37:03.840Z,100329.13
2022-10-05T04:39:38.739Z,100327.53
2022-10-05T04:42:12.780Z,100318.81
2022-10-05T04:45:02.521Z,100316.88
2022-10-05T04:47:49.871Z,100326.06
2022-10-05T04:50:34.795Z,100326.31
2022-10-05T04:53:17.754Z,100327.63
2022-10-05T04:55:56.486Z,100332.03
2022-10-05T04:58:48.883Z,100334.69
2022-10-05T05:01:31.342Z,100324.50
2022-10-05T05:04:16.330Z,100330.81
2022-10-05T05:06:52.526Z,100334.81
2022-10-05T05:09:38.509Z,100332.25
2022-10-05T05:12:18.710Z,100335.19
2022-10-05T05:15:20.089Z,100336.16
2022-10-05T05:18:17.227Z,100343.31
2022-10-05T05:20:55.145Z,100349.84
2022-10-05T05:23:28.955Z,100345.38
2022-10-05T05:26:03.980Z,100350.47
2022-10-05T05:28:39.976Z,100356.25
2022-10-05T05:31:13.807Z,100353.38
2022-10-05T05:33:50.994Z,100373.09
2022-10-05T05:36:27.601Z,100369.97
2022-10-05T05:39:15.310Z,100354.72
2022-10-05T05:41:53.332Z,100365.97
2022-10-05T05:44:25.548Z,100378.78
2022-10-05T05:47:05.059Z,100375.16
2022-10-05T05:49:53.028Z,100373.84
2022-10-05T05:52:26.923Z,100360.88
2022-10-05T05:55:00.658Z,100364.75
2022-10-05T05:57:35.307Z,100370.72
2022-10-05T06:00:07.644Z,100379.06
2022-10-05T06:02:45.683Z,100381.00
2022-10-05T06:05:27.451Z,100382.22
2022-10-05T06:07:58.780Z,100384.88
2022-10-05T06:10:34.073Z,100383.28
2022-10-05T06:13:08.674Z,100402.19
2022-10-05T06:15:42.026Z,100398.31
2022-10-05T06:18:12.147Z,100385.97
2022-10-05T06:20:51.756Z,100398.22
2022-10-05T06:23:27.618Z,100401.13
2022-10-05T06:26:10.983Z,100403.06
2022-10-05T06:28:41.156Z,100407.66
2022-10-05T06:31:19.760Z,100402.06
2022-10-05T06:33:55.926Z,100413.63
2022-10-05T06:36:50.644Z,100418.56
2022-10-05T06:40:00.882Z,100423.06
2022-10-05T06:42:57.864Z,100409.06
2022-10-05T06:46:01.525Z,100400.72
2022-10-05T06:49:17.191Z,100401.97
2022-10-05T06:52:10.852Z,100402.22
2022-10-05T06:54:55.702Z,100405.16
2022-10-05T06:58:00.111Z,100407.34
2022-10-05T07:00:32.175Z,100405.50
2022-10-05T07:03:06.424Z,100410.22
2022-10-05T07:05:56.347Z,100405.88
2022-10-05T07:08:32.717Z,100421.44
2022-10-05T07:11:09.357Z,100417.22
2022-10-05T07:14:03.716Z,100415.59
2022-10-05T07:16:41.656Z,100407.34
2022-10-05T07:19:38.729Z,100410.31
2022-10-05T07:22:47.921Z,100417.81
2022-10-05T07:25:25.034Z,100425.13
2022-10-05T07:27:59.048Z,100416.56
2022-10-05T07:30:29.759Z,100417.50
2022-10-05T07:33:02.562Z,100420.84
2022-10-05T07:35:59.805Z,100417.28
2022-10-05T07:38:33.209Z,100416.53
2022-10-05T07:41:07.567Z,100419.38
2022-10-05T07:44:01.584Z,100431.72
2022-10-05T07:46:50.582Z,100427.75
2022-10-05T07:49:26.965Z,100428.22
2022-10-05T07:52:00.030Z,100431.53
2022-10-05T07:54:37.993Z,100433.81
2022-10-05T07:57:13.542Z,100428.81
2022-10-05T07:59:45.979Z,100427.53
2022-10-05T08:02:27.207Z,100431.06
2022-10-05T08:05:00.334Z,100429.69
2022-10-05T08:07:29.695Z,100427.38
2022-10-05T08:10:07.706Z,100424.28
2022-10-05T08:12:42.884Z,100418.94
2022-10-05T08:15:15.955Z,100414.31
2022-10-05T08:17:50.699Z,100412.97
2022-10-05T08:20:46.628Z,100410.28
2022-10-05T08:23:25.521Z,100404.50
2022-10-05T08:26:08.588Z,100405.06
2022-10-05T08:28:41.675Z,100413.78
2022-10-05T08:31:16.349Z,100407.19
2022-10-05T08:33:55.728Z,100407.59
2022-10-05T08:36:33.328Z,100404.22
2022-10-05T08:39:04.175Z,100401.91
2022-10-05T08:41:48.777Z,100399.22
2022-10-05T08:45:05.949Z,100396.25
2022-10-05T08:48:19.092Z,100400.16
2022-10-05T08:51:12.910Z,100388.47
2022-10-05T08:54:01.899Z,100383.91
2022-10-05T08:56:38.323Z,100376.00
2022-10-05T08:59:45.456Z,100372.22
2022-10-05T09:02:25.942Z,100375.41
2022-10-05T09:05:14.268Z,100380.84
2022-10-05T09:08:17.638Z,100377.34
2022-10-05T09:11:11.401Z,100378.88
2022-10-05T09:14:29.089Z,100370.34
2022-10-05T09:17:23.029Z,100367.94
2022-10-05T09:20:10.797Z,100369.84
2022-10-05T09:23:00.132Z,100367.84
2022-10-05T09:25:54.878Z,100367.28
2022-10-05T09:28:32.947Z,100373.59
2022-10-05T09:31:31.615Z,100378.34
2022-10-05T09:34:33.085Z,100382.31
2022-10-05T09:37:46.594Z,100386.28
2022-10-05T09:40:52.252Z,100379.84
2022-10-05T09:43:47.738Z,100375.03
2022-10-05T09:46:42.171Z,100376.81
2022-10-05T09:49:44.318Z,100384.25
2022-10-05T09:52:36.350Z,100370.34
2022-10-05T09:55:23.532Z,100381.41
2022-10-05T09:58:23.306Z,100385.00
2022-10-05T10:01:33.302Z,100375.84
2022-10-05T10:04:33.105Z,100369.72
2022-10-05T10:07:37.832Z,100379.44
2022-10-05T10:10:23.616Z,100376.34
2022-10-05T10:13:03.116Z,100372.97
2022-10-05T10:16:10.427Z,100364.06
2022-10-05T10:19:22.011Z,100361.53
2022-10-05T10:22:15.768Z,100354.25
2022-10-05T10:24:56.641Z,100349.50
2022-10-05T10:27:37.848Z,100350.84
2022-10-05T10:30:27.601Z,100350.53
2022-10-05T10:33:50.221Z,100354.84
2022-10-05T10:36:21.883Z,100350.53
2022-10-05T10:39:03.494Z,100349.72
2022-10-05T10:41:57.321Z,100357.34
2022-10-05T10:44:53.127Z,100353.94
2022-10-05T10:47:48.013Z,100342.13
2022-10-05T10:50:33.313Z,100337.56
2022-10-05T10:53:10.672Z,100339.78
2022-10-05T10:55:43.660Z,100344.47
2022-10-05T10:58:45.012Z,100335.19
2022-10-05T11:01:31.637Z,100326.94
2022-10-05T11:04:31.321Z,100327.75
2022-10-05T11:07:29.973Z,100330.59
2022-10-05T11:10:16.358Z,100329.44
2022-10-05T11:13:13.687Z,100321.28
2022-10-05T11:16:10.416Z,100317.72
2022-10-05T11:18:49.682Z,100307.38
2022-10-05T11:21:38.418Z,100303.69
2022-10-05T11:24:40.534Z,100300.97
2022-10-05T11:27:40.482Z,100302.84
2022-10-05T11:30:48.896Z,100301.63
2022-10-05T11:33:52.377Z,100301.59
2022-10-05T11:36:53.487Z,100297.16
2022-10-05T11:39:38.908Z,100292.44
2022-10-05T11:42:39.013Z,100279.22
2022-10-05T11:45:21.817Z,100277.84
2022-10-05T11:48:10.858Z,100287.94
2022-10-05T11:50:53.329Z,100285.22
2022-10-05T11:53:26.452Z,100282.50
2022-10-05T11:56:04.231Z,100278.81
2022-10-05T11:58:35.402Z,100276.13
2022-10-05T12:01:08.200Z,100267.47
2022-10-05T12:03:57.430Z,100281.72
2022-10-05T12:07:01.232Z,100279.50
2022-10-05T12:10:04.887Z,100281.91
2022-10-05T12:12:38.426Z,100277.28
2022-10-05T12:15:17.546Z,100272.78
2022-10-05T12:17:51.500Z,100277.13
2022-10-05T12:20:22.448Z,100272.41
2022-10-05T12:22:58.103Z,100268.34
2022-10-05T12:25:30.425Z,100259.25
2022-10-05T12:28:04.133Z,100260.72
2022-10-05T12:30:48.920Z,100259.25
2022-10-05T12:33:21.472Z,100256.50
2022-10-05T12:35:53.617Z,100267.31
2022-10-05T12:38:28.554Z,100261.53
2022-10-05T12:41:05.543Z,100250.09
2022-10-05T12:43:39.844Z,100253.97
2022-10-05T12:46:10.786Z,100248.88
2022-10-05T12:48:57.962Z,100253.81
2022-10-05T12:51:35.601Z,100251.22
2022-10-05T12:54:13.488Z,100246.47
2022-10-05T12:56:45.698Z,100245.09
2022-10-05T12:59:22.361Z,100246.41
2022-10-05T13:01:56.413Z,100248.09
2022-10-05T13:04:33.341Z,100245.00
2022-10-05T13:07:14.480Z,100236.06
2022-10-05T13:09:53.523Z,100235.72
2022-10-05T13:12:29.855Z,100239.53
2022-10-05T13:15:03.922Z,100237.03
2022-10-05T13:17:38.883Z,100239.63
2022-10-05T13:20:14.040Z,100233.03
2022-10-05T13:22:44.695Z,100226.28
2022-10-05T13:25:27.478Z,100230.88
2022-10-05T13:28:15.499Z,100238.44
2022-10-05T13:30:53.076Z,100239.41
2022-10-05T13:33:26.574Z,100232.13
2022-10-05T13:35:59.061Z,100232.75
2022-10-05T13:38:38.372Z,100239.22
2022-10-05T13:41:17.886Z,100234.16
2022-10-05T13:43:56.079Z,100239.94
2022-10-05T13:46:30.090Z,100236.13
2022-10-05T13:49:06.025Z,100238.28
2022-10-05T13:51:42.440Z,100234.03
2022-10-05T13:54:16.392Z,100232.00
2022-10-05T13:56:48.813Z,100234.78
2022-10-05T13:59:21.934Z,100231.78
2022-10-05T14:01:54.139Z,100232.63
2022-10-05T14:04:25.682Z,100228.59
2022-10-05T14:06:54.180Z,100222.38
2022-10-05T14:09:32.530Z,100222.53
2022-10-05T14:12:22.422Z,100220.06
2022-10-05T14:14:55.289Z,100213.63
2022-10-05T14:17:42.240Z,100218.03
2022-10-05T14:20:35.274Z,100214.19
2022-10-05T14:23:08.111Z,100218.50
2022-10-05T14:25:50.532Z,100219.00
2022-10-05T14:28:29.598Z,100221.88
2022-10-05T14:30:59.969Z,100208.22
2022-10-05T14:33:29.793Z,100216.53
2022-10-05T14:36:02.620Z,100215.38
2022-10-05T14:38:36.408Z,100208.66
2022-10-05T14:41:14.141Z,100216.81
2022-10-05T14:43:53.004Z,100207.88
2022-10-05T14:46:28.599Z,100211.38
2022-10-05T14:49:26.866Z,100207.63
2022-10-05T14:51:56.261Z,100204.38
2022-10-05T14:54:47.642Z,100195.38
2022-10-05T14:57:25.714Z,100205.28
2022-10-05T15:00:09.157Z,100191.81
2022-10-05T15:03:01.161Z,100190.84
2022-10-05T15:05:36.813Z,100194.78
2022-10-05T15:08:15.945Z,100183.63
2022-10-05T15:10:50.931Z,100184.00
2022-10-05T15:13:22.597Z,100190.97
2022-10-05T15:15:54.771Z,100190.59
2022-10-05T15:18:36.905Z,100191.16
2022-10-05T15:21:27.697Z,100184.94
2022-10-05T15:23:58.762Z,100188.66
2022-10-05T15:26:36.660Z,100191.53
2022-10-05T15:29:14.467Z,100187.88
2022-10-05T15:31:50.720Z,100188.88
2022-10-05T15:34:25.362Z,100189.59
2022-10-05T15:36:57.334Z,100185.75
2022-10-05T15:39:29.694Z,100198.03
2022-10-05T15:42:01.011Z,100190.16
2022-10-05T15:44:40.367Z,100188.31
2022-10-05T15:47:14.056Z,100182.25
2022-10-05T15:49:50.340Z,100180.56
2022-10-05T15:52:24.593Z,100183.97
2022-10-05T15:55:26.641Z,100180.63
2022-10-05T15:58:02.772Z,100185.00
2022-10-05T16:00:52.358Z,100185.38
2022-10-05T16:03:27.450Z,100183.34
2022-10-05T16:06:15.841Z,100186.41
2022-10-05T16:09:01.867Z,100190.81
2022-10-05T16:11:50.879Z,100184.91
2022-10-05T16:14:28.404Z,100186.28
2022-10-05T16:17:09.459Z,100182.25
2022-10-05T16:19:46.855Z,100184.94
2022-10-05T16:22:23.960Z,100192.53
2022-10-05T16:25:07.053Z,100193.22
2022-10-05T16:27:49.317Z,100198.09
2022-10-05T16:30:21.461Z,100188.31
2022-10-05T16:32:57.474Z,100195.59
2022-10-05T16:35:33.288Z,100194.78
2022-10-05T16:38:13.877Z,100204.03
2022-10-05T16:40:45.968Z,100203.88
2022-10-05T16:43:25.773Z,100204.22
2022-10-05T16:46:02.433Z,100206.06
2022-10-05T16:48:35.592Z,100211.47
2022-10-05T16:51:21.654Z,100213.28
2022-10-05T16:53:59.789Z,100216.84
2022-10-05T16:56:31.886Z,100221.38
2022-10-05T16:59:14.370Z,100209.59
2022-10-05T17:01:52.470Z,100212.13
2022-10-05T17:04:31.942Z,100218.34
2022-10-05T17:07:16.874Z,100225.75
2022-10-05T17:09:59.744Z,100223.22
2022-10-05T17:12:45.635Z,100231.81
2022-10-05T17:15:37.568Z,100234.84
2022-10-05T17:18:46.258Z,100230.97
2022-10-05T17:21:16.951Z,100234.19
2022-10-05T17:23:55.602Z,100233.13
2022-10-05T17:26:38.629Z,100236.34
2022-10-05T17:29:17.135Z,100232.97
2022-10-05T17:32:13.452Z,100237.84
2022-10-05T17:35:18.243Z,100238.00
2022-10-05T17:38:14.253Z,100235.63
2022-10-05T17:41:05.569Z,100241.84
2022-10-05T17:43:40.333Z,100239.00
2022-10-05T17:46:12.513Z,100239.50
2022-10-05T17:49:11.956Z,100243.84
2022-10-05T17:52:21.639Z,100241.00
2022-10-05T17:55:15.410Z,100242.00
2022-10-05T17:57:46.718Z,100238.94
2022-10-05T18:00:40.369Z,100245.69
2022-10-05T18:03:35.842Z,100247.88
2022-10-05T18:06:38.419Z,100245.03
2022-10-05T18:09:22.106Z,100253.75
2022-10-05T18:12:10.169Z,100250.88
2022-10-05T18:15:00.435Z,100254.41
2022-10-05T18:17:44.517Z,100259.78
2022-10-05T18:20:30.207Z,100255.91
2022-10-05T18:23:36.231Z,100255.22
2022-10-05T18:26:16.010Z,100259.47
2022-10-05T18:28:54.169Z,100256.75
2022-10-05T18:31:32.406Z,100247.84
2022-10-05T18:34:13.415Z,100250.28
2022-10-05T18:37:02.558Z,100256.41
2022-10-05T18:39:42.988Z,100257.69
2022-10-05T18:42:22.762Z,100248.59
2022-10-05T18:44:55.325Z,100253.50
2022-10-05T18:47:32.003Z,100251.78
2022-10-05T18:50:10.224Z,100242.84
2022-10-05T18:52:50.086Z,100248.22
2022-10-05T18:55:23.692Z,100252.75
2022-10-05T18:58:19.605Z,100250.53
2022-10-05T19:01:29.690Z,100249.66
2022-10-05T19:04:15.861Z,100254.88
2022-10-05T19:06:56.103Z,100247.81
2022-10-05T19:09:51.036Z,100246.78
2022-10-05T19:12:26.231Z,100244.75
2022-10-05T19:15:06.525Z,100254.88
2022-10-05T19:18:00.605Z,100258.22
2022-10-05T19:20:36.061Z,100256.16
2022-10-05T19:23:46.146Z,100255.50
2022-10-05T19:26:17.285Z,100253.13
2022-10-05T19:29:00.227Z,100263.72
2022-10-05T19:31:34.398Z,100255.66
2022-10-05T19:34:32.838Z,100261.34
2022-10-05T19:37:13.423Z,100262.84
2022-10-05T19:39:48.124Z,100268.88
2022-10-05T19:42:50.961Z,100272.50
2022-10-05T19:45:23.921Z,100276.28
2022-10-05T19:48:04.246Z,100280.81
2022-10-05T19:50:34.485Z,100277.56
2022-10-05T19:53:13.520Z,100279.06
2022-10-05T19:55:44.499Z,100283.81
2022-10-05T19:58:26.480Z,100290.22
2022-10-05T20:01:00.043Z,100291.66
2022-10-05T20:03:30.433Z,100294.88
2022-10-05T20:06:05.108Z,100297.03
2022-10-05T20:08:49.393Z,100299.72
2022-10-05T20:11:25.881Z,100302.56
2022-10-05T20:14:18.977Z,100300.69
2022-10-05T20:17:04.750Z,100304.69
2022-10-05T20:19:55.938Z,100301.78
2022-10-05T20:22:34.324Z,100306.00
2022-10-05T20:25:06.360Z,100306.00
2022-10-05T20:27:47.491Z,100303.09
2022-10-05T20:30:18.397Z,100316.38
2022-10-05T20:32:57.701Z,100317.06
2022-10-05T20:35:29.596Z,100326.59
2022-10-05T20:38:00.511Z,100319.38
2022-10-05T20:40:32.104Z,100320.06
2022-10-05T20:43:02.757Z,100320.22
2022-10-05T20:45:32.364Z,100324.63
2022-10-05T20:48:02.726Z,100331.44
2022-10-05T20:50:36.896Z,100334.81
2022-10-05T20:53:11.773Z,100329.28
2022-10-05T20:55:43.962Z,100341.97
2022-10-05T20:58:12.679Z,100331.75
2022-10-05T21:00:59.815Z,100335.09
2022-10-05T21:03:28.499Z,100335.91
2022-10-05T21:05:59.975Z,100339.44
2022-10-05T21:08:30.901Z,100333.50
2022-10-05T21:11:09.029Z,100342.28
2022-10-05T21:13:42.642Z,100336.34
2022-10-05T21:16:28.201Z,100345.84
2022-10-05T21:18:58.943Z,100339.78
2022-10-05T21:21:28.641Z,100346.47
2022-10-05T21:24:00.542Z,100339.56
2022-10-05T21:26:33.718Z,100352.25
2022-10-05T21:29:02.753Z,100343.94
2022-10-05T21:31:31.840Z,100346.31
2022-10-05T21:34:02.729Z,100342.13
2022-10-05T21:36:35.014Z,100350.59
2022-10-05T21:39:03.503Z,100350.81
2022-10-05T21:41:34.128Z,100349.69
2022-10-05T21:44:04.282Z,100339.47
2022-10-05T21:46:37.977Z,100346.44
2022-10-05T21:49:07.281Z,100348.69
2022-10-05T21:51:35.585Z,100350.81
2022-10-05T21:54:09.027Z,100352.22
2022-10-05T21:56:40.700Z,100343.66
2022-10-05T21:59:11.538Z,100354.41
2022-10-05T22:01:43.309Z,100348.41
2022-10-05T22:04:15.172Z,100344.59
2022-10-05T22:06:43.707Z,100347.94
2022-10-05T22:09:15.598Z,100341.13
2022-10-05T22:11:49.265Z,100341.59
2022-10-05T22:14:17.421Z,100342.41
2022-10-05T22:16:56.152Z,100343.47
2022-10-05T22:19:24.242Z,100345.19
2022-10-05T22:21:52.775Z,100342.38
2022-10-05T22:24:22.033Z,100341.94
2022-10-05T22:26:53.134Z,100339.50
2022-10-05T22:29:22.583Z,100342.78
2022-10-05T22:31:53.249Z,100346.97
2022-10-05T22:34:22.393Z,100347.75
2022-10-05T22:36:50.838Z,100347.81
2022-10-05T22:39:20.562Z,100347.41
2022-10-05T22:41:51.013Z,100345.47
2022-10-05T22:44:19.103Z,100353.50
2022-10-05T22:46:49.622Z,100358.88
2022-10-05T22:49:22.033Z,100352.53
2022-10-05T22:51:51.081Z,100357.50
2022-10-05T22:54:24.371Z,100360.31
2022-10-05T22:56:57.959Z,100357.84
2022-10-05T22:59:27.318Z,100367.00
2022-10-05T23:01:55.753Z,100371.41
2022-10-05T23:04:23.850Z,100367.97
2022-10-05T23:06:51.947Z,100367.16
2022-10-05T23:09:20.621Z,100374.19
2022-10-05T23:11:52.172Z,100362.34
2022-10-05T23:14:23.814Z,100370.69
2022-10-05T23:16:52.142Z,100370.84
2022-10-05T23:19:20.621Z,100377.50
2022-10-05T23:21:50.511Z,100372.94
2022-10-05T23:24:18.523Z,100371.97
2022-10-05T23:26:47.890Z,100363.19
2022-10-05T23:29:15.912Z,100374.09
2022-10-05T23:31:46.476Z,100361.63
2022-10-05T23:34:14.607Z,100371.25
2022-10-05T23:36:45.178Z,100364.34
2022-10-05T23:39:13.835Z,100370.56
2022-10-05T23:41:43.962Z,100367.16
2022-10-05T23:44:15.226Z,100378.09
2022-10-05T23:46:52.821Z,100376.25
2022-10-05T23:49:22.031Z,100373.25
2022-10-05T23:51:52.040Z,100376.78
2022-10-05T23:54:22.988Z,100381.88
2022-10-05T23:56:53.211Z,100390.50
2022-10-05T23:59:25.699Z,100387.53
